sensor_id;sensor_type;location;lat;lon;timestamp;P1;durP1;ratioP1;P2;durP2;ratioP2
74867;SDS011;63419;42.262;12.210;2022-09-09T16:08:10;5.38;;;1.00;;
74867;SDS011;63419;42.262;12.210;2022-09-09T16:10:40;5.55;;;0.98;;
74867;SDS011;63419;42.262;12.210;2022-09-09T16:13:06;4.47;;;0.77;;
74867;SDS011;63419;42.262;12.210;2022-09-09T16:19:33;3.88;;;0.73;;
74867;SDS011;63419;42.262;12.210;2022-09-09T16:22:11;7.15;;;0.77;;
74867;SDS011;63419;42.262;12.210;2022-09-09T16:24:40;4.07;;;0.95;;
74867;SDS011;63419;42.262;12.210;2022-09-09T16:27:06;4.38;;;0.52;;
74867;SDS011;63419;42.262;12.210;2022-09-09T16:29:32;6.50;;;0.82;;
74867;SDS011;63419;42.262;12.210;2022-09-09T16:31:58;8.07;;;1.13;;
74867;SDS011;63419;42.262;12.210;2022-09-09T16:34:25;5.15;;;0.88;;
74867;SDS011;63419;42.262;12.210;2022-09-09T16:36:51;4.22;;;0.77;;
74867;SDS011;63419;42.262;12.210;2022-09-09T16:39:18;4.50;;;0.80;;
74867;SDS011;63419;42.262;12.210;2022-09-09T16:44:18;4.28;;;0.60;;
74867;SDS011;63419;42.262;12.210;2022-09-09T16:46:47;4.93;;;0.65;;
74867;SDS011;63419;42.262;12.210;2022-09-09T16:49:16;5.15;;;0.70;;
74867;SDS011;63419;42.262;12.210;2022-09-09T16:51:44;4.30;;;0.68;;
74867;SDS011;63419;42.262;12.210;2022-09-09T16:54:13;6.47;;;0.57;;
74867;SDS011;63419;42.262;12.210;2022-09-09T16:56:46;5.10;;;0.85;;
74867;SDS011;63419;42.262;12.210;2022-09-09T16:59:34;6.05;;;0.93;;
74867;SDS011;63419;42.262;12.210;2022-09-09T17:02:00;5.00;;;0.77;;
74867;SDS011;63419;42.262;12.210;2022-09-09T17:04:29;4.88;;;0.77;;
74867;SDS011;63419;42.262;12.210;2022-09-09T17:06:56;7.20;;;0.90;;
74867;SDS011;63419;42.262;12.210;2022-09-09T17:09:25;4.85;;;0.73;;
74867;SDS011;63419;42.262;12.210;2022-09-09T17:11:56;6.13;;;0.52;;
74867;SDS011;63419;42.262;12.210;2022-09-09T17:14:23;4.45;;;0.63;;
74867;SDS011;63419;42.262;12.210;2022-09-09T17:16:49;5.25;;;1.13;;
74867;SDS011;63419;42.262;12.210;2022-09-09T17:19:18;6.25;;;0.82;;
74867;SDS011;63419;42.262;12.210;2022-09-09T17:21:45;6.43;;;1.10;;
74867;SDS011;63419;42.262;12.210;2022-09-09T17:24:14;7.30;;;1.00;;
74867;SDS011;63419;42.262;12.210;2022-09-09T17:26:40;4.75;;;1.13;;
74867;SDS011;63419;42.262;12.210;2022-09-09T17:29:07;6.78;;;1.42;;
74867;SDS011;63419;42.262;12.210;2022-09-09T17:31:33;7.57;;;1.10;;
74867;SDS011;63419;42.262;12.210;2022-09-09T17:33:59;5.35;;;0.80;;
74867;SDS011;63419;42.262;12.210;2022-09-09T17:36:27;4.43;;;0.82;;
74867;SDS011;63419;42.262;12.210;2022-09-09T17:38:57;4.20;;;0.73;;
74867;SDS011;63419;42.262;12.210;2022-09-09T17:41:29;6.90;;;0.90;;
74867;SDS011;63419;42.262;12.210;2022-09-09T17:44:05;3.78;;;1.17;;
74867;SDS011;63419;42.262;12.210;2022-09-09T17:46:34;5.78;;;0.90;;
74867;SDS011;63419;42.262;12.210;2022-09-09T17:49:07;5.80;;;0.70;;
74867;SDS011;63419;42.262;12.210;2022-09-09T17:51:37;4.60;;;0.80;;
74867;SDS011;63419;42.262;12.210;2022-09-09T17:54:05;7.18;;;0.90;;
74867;SDS011;63419;42.262;12.210;2022-09-09T17:56:35;5.40;;;1.08;;
74867;SDS011;63419;42.262;12.210;2022-09-09T17:59:03;4.07;;;0.88;;
74867;SDS011;63419;42.262;12.210;2022-09-09T18:01:33;12.07;;;1.05;;
74867;SDS011;63419;42.262;12.210;2022-09-09T18:04:04;5.15;;;0.70;;
74867;SDS011;63419;42.262;12.210;2022-09-09T18:06:35;7.65;;;0.75;;
74867;SDS011;63419;42.262;12.210;2022-09-09T18:09:09;3.20;;;0.60;;
74867;SDS011;63419;42.262;12.210;2022-09-09T18:11:41;6.28;;;0.90;;
74867;SDS011;63419;42.262;12.210;2022-09-09T18:14:13;6.00;;;0.73;;
74867;SDS011;63419;42.262;12.210;2022-09-09T18:16:44;6.22;;;0.82;;
74867;SDS011;63419;42.262;12.210;2022-09-09T18:19:12;7.07;;;0.88;;
74867;SDS011;63419;42.262;12.210;2022-09-09T18:21:42;7.80;;;0.90;;
74867;SDS011;63419;42.262;12.210;2022-09-09T18:24:09;5.45;;;0.95;;
74867;SDS011;63419;42.262;12.210;2022-09-09T18:26:39;5.70;;;0.90;;
74867;SDS011;63419;42.262;12.210;2022-09-09T18:29:08;4.68;;;0.73;;
74867;SDS011;63419;42.262;12.210;2022-09-09T18:31:39;5.05;;;0.80;;
74867;SDS011;63419;42.262;12.210;2022-09-09T18:34:07;8.63;;;1.60;;
74867;SDS011;63419;42.262;12.210;2022-09-09T18:36:38;5.15;;;0.98;;
74867;SDS011;63419;42.262;12.210;2022-09-09T18:39:10;6.03;;;1.17;;
74867;SDS011;63419;42.262;12.210;2022-09-09T18:41:40;6.78;;;1.10;;
74867;SDS011;63419;42.262;12.210;2022-09-09T18:44:13;5.78;;;1.10;;
74867;SDS011;63419;42.262;12.210;2022-09-09T18:46:44;8.27;;;1.27;;
74867;SDS011;63419;42.262;12.210;2022-09-09T18:49:12;7.55;;;1.35;;
74867;SDS011;63419;42.262;12.210;2022-09-09T18:51:40;6.10;;;0.93;;
74867;SDS011;63419;42.262;12.210;2022-09-09T18:54:11;8.48;;;2.17;;
74867;SDS011;63419;42.262;12.210;2022-09-09T18:56:41;4.18;;;0.95;;
74867;SDS011;63419;42.262;12.210;2022-09-09T18:59:10;7.93;;;1.40;;
74867;SDS011;63419;42.262;12.210;2022-09-09T19:01:39;8.57;;;1.30;;
74867;SDS011;63419;42.262;12.210;2022-09-09T19:04:06;4.95;;;1.42;;
74867;SDS011;63419;42.262;12.210;2022-09-09T19:06:36;5.57;;;0.93;;
74867;SDS011;63419;42.262;12.210;2022-09-09T19:09:10;6.88;;;1.55;;
74867;SDS011;63419;42.262;12.210;2022-09-09T19:11:39;6.60;;;1.10;;
74867;SDS011;63419;42.262;12.210;2022-09-09T19:14:06;7.28;;;1.38;;
74867;SDS011;63419;42.262;12.210;2022-09-09T19:16:36;9.80;;;1.25;;
74867;SDS011;63419;42.262;12.210;2022-09-09T19:19:06;9.48;;;1.42;;
74867;SDS011;63419;42.262;12.210;2022-09-09T19:21:38;7.40;;;1.20;;
74867;SDS011;63419;42.262;12.210;2022-09-09T19:24:19;7.25;;;1.73;;
74867;SDS011;63419;42.262;12.210;2022-09-09T19:26:49;5.03;;;0.95;;
74867;SDS011;63419;42.262;12.210;2022-09-09T19:29:19;10.38;;;1.83;;
74867;SDS011;63419;42.262;12.210;2022-09-09T19:31:48;8.32;;;2.08;;
74867;SDS011;63419;42.262;12.210;2022-09-09T19:34:17;10.40;;;1.70;;
74867;SDS011;63419;42.262;12.210;2022-09-09T19:36:44;7.47;;;1.60;;
74867;SDS011;63419;42.262;12.210;2022-09-09T19:39:12;7.20;;;1.73;;
74867;SDS011;63419;42.262;12.210;2022-09-09T19:41:40;9.75;;;2.08;;
74867;SDS011;63419;42.262;12.210;2022-09-09T19:44:08;9.68;;;2.00;;
74867;SDS011;63419;42.262;12.210;2022-09-09T19:46:43;9.38;;;1.85;;
74867;SDS011;63419;42.262;12.210;2022-09-09T19:49:11;6.15;;;2.20;;
74867;SDS011;63419;42.262;12.210;2022-09-09T19:51:39;7.55;;;1.67;;
74867;SDS011;63419;42.262;12.210;2022-09-09T19:54:06;8.55;;;1.80;;
74867;SDS011;63419;42.262;12.210;2022-09-09T19:56:37;6.28;;;1.50;;
74867;SDS011;63419;42.262;12.210;2022-09-09T19:59:05;7.22;;;1.60;;
74867;SDS011;63419;42.262;12.210;2022-09-09T20:01:36;8.13;;;1.55;;
74867;SDS011;63419;42.262;12.210;2022-09-09T20:04:09;11.52;;;2.03;;
74867;SDS011;63419;42.262;12.210;2022-09-09T20:06:37;6.15;;;1.52;;
74867;SDS011;63419;42.262;12.210;2022-09-09T20:09:06;5.65;;;1.13;;
74867;SDS011;63419;42.262;12.210;2022-09-09T20:11:38;6.50;;;1.60;;
74867;SDS011;63419;42.262;12.210;2022-09-09T20:14:07;5.53;;;1.52;;
74867;SDS011;63419;42.262;12.210;2022-09-09T20:16:35;6.03;;;1.25;;
74867;SDS011;63419;42.262;12.210;2022-09-09T20:24:04;7.63;;;1.42;;
74867;SDS011;63419;42.262;12.210;2022-09-09T20:26:35;9.30;;;1.55;;
74867;SDS011;63419;42.262;12.210;2022-09-09T20:29:06;7.93;;;1.48;;
74867;SDS011;63419;42.262;12.210;2022-09-09T20:31:37;7.13;;;1.60;;
74867;SDS011;63419;42.262;12.210;2022-09-09T20:34:06;8.15;;;1.33;;
74867;SDS011;63419;42.262;12.210;2022-09-09T20:36:37;6.00;;;1.08;;
74867;SDS011;63419;42.262;12.210;2022-09-09T20:41:46;7.68;;;1.42;;
74867;SDS011;63419;42.262;12.210;2022-09-09T20:44:14;7.15;;;1.23;;
74867;SDS011;63419;42.262;12.210;2022-09-09T20:46:48;8.18;;;1.83;;
74867;SDS011;63419;42.262;12.210;2022-09-09T20:49:18;8.18;;;1.30;;
74867;SDS011;63419;42.262;12.210;2022-09-09T20:51:46;6.55;;;1.48;;
74867;SDS011;63419;42.262;12.210;2022-09-09T20:54:19;6.88;;;1.40;;
74867;SDS011;63419;42.262;12.210;2022-09-09T20:59:20;11.02;;;1.73;;
74867;SDS011;63419;42.262;12.210;2022-09-09T21:01:51;5.57;;;1.27;;
74867;SDS011;63419;42.262;12.210;2022-09-09T21:04:19;8.77;;;1.48;;
74867;SDS011;63419;42.262;12.210;2022-09-09T21:06:47;5.95;;;1.65;;
74867;SDS011;63419;42.262;12.210;2022-09-09T21:09:15;9.13;;;1.80;;
74867;SDS011;63419;42.262;12.210;2022-09-09T21:14:08;9.23;;;1.27;;
74867;SDS011;63419;42.262;12.210;2022-09-09T21:16:40;5.68;;;1.58;;
74867;SDS011;63419;42.262;12.210;2022-09-09T21:19:06;9.85;;;1.88;;
74867;SDS011;63419;42.262;12.210;2022-09-09T21:21:32;7.05;;;1.77;;
74867;SDS011;63419;42.262;12.210;2022-09-09T21:24:00;7.10;;;1.80;;
74867;SDS011;63419;42.262;12.210;2022-09-09T21:26:27;7.80;;;2.50;;
74867;SDS011;63419;42.262;12.210;2022-09-09T21:28:53;8.27;;;1.67;;
74867;SDS011;63419;42.262;12.210;2022-09-09T21:31:20;8.65;;;2.83;;
74867;SDS011;63419;42.262;12.210;2022-09-09T21:33:48;5.00;;;1.60;;
74867;SDS011;63419;42.262;12.210;2022-09-09T21:36:15;7.65;;;1.90;;
74867;SDS011;63419;42.262;12.210;2022-09-09T21:38:41;6.68;;;1.30;;
74867;SDS011;63419;42.262;12.210;2022-09-09T21:41:09;7.07;;;1.63;;
74867;SDS011;63419;42.262;12.210;2022-09-09T21:43:41;7.18;;;1.58;;
74867;SDS011;63419;42.262;12.210;2022-09-09T21:46:09;6.85;;;1.17;;
74867;SDS011;63419;42.262;12.210;2022-09-09T21:48:38;6.45;;;1.13;;
74867;SDS011;63419;42.262;12.210;2022-09-09T21:51:05;4.40;;;1.10;;
74867;SDS011;63419;42.262;12.210;2022-09-09T21:53:35;6.38;;;1.02;;
74867;SDS011;63419;42.262;12.210;2022-09-09T21:56:03;4.93;;;0.80;;
74867;SDS011;63419;42.262;12.210;2022-09-09T21:58:34;5.72;;;1.08;;
74867;SDS011;63419;42.262;12.210;2022-09-09T22:01:07;8.65;;;1.17;;
74867;SDS011;63419;42.262;12.210;2022-09-09T22:03:39;5.88;;;1.13;;
74867;SDS011;63419;42.262;12.210;2022-09-09T22:06:09;4.85;;;1.15;;
74867;SDS011;63419;42.262;12.210;2022-09-09T22:08:40;5.47;;;0.98;;
74867;SDS011;63419;42.262;12.210;2022-09-09T22:11:11;5.57;;;1.13;;
74867;SDS011;63419;42.262;12.210;2022-09-09T22:13:47;5.07;;;1.13;;
74867;SDS011;63419;42.262;12.210;2022-09-09T22:16:16;6.30;;;1.00;;
74867;SDS011;63419;42.262;12.210;2022-09-09T22:18:48;6.10;;;0.93;;
74867;SDS011;63419;42.262;12.210;2022-09-09T22:21:18;6.65;;;1.17;;
74867;SDS011;63419;42.262;12.210;2022-09-09T22:23:49;3.03;;;0.80;;
74867;SDS011;63419;42.262;12.210;2022-09-09T22:26:23;5.55;;;1.10;;
74867;SDS011;63419;42.262;12.210;2022-09-09T22:28:51;8.05;;;1.67;;
74867;SDS011;63419;42.262;12.210;2022-09-09T22:31:18;7.22;;;1.33;;
74867;SDS011;63419;42.262;12.210;2022-09-09T22:33:46;7.70;;;1.45;;
74867;SDS011;63419;42.262;12.210;2022-09-09T22:38:39;8.75;;;1.00;;
74867;SDS011;63419;42.262;12.210;2022-09-09T22:41:05;6.68;;;1.17;;
74867;SDS011;63419;42.262;12.210;2022-09-09T22:43:31;7.25;;;1.35;;
74867;SDS011;63419;42.262;12.210;2022-09-09T22:45:58;6.10;;;1.40;;
74867;SDS011;63419;42.262;12.210;2022-09-09T22:48:26;3.80;;;0.88;;
74867;SDS011;63419;42.262;12.210;2022-09-09T22:51:00;8.57;;;1.13;;
74867;SDS011;63419;42.262;12.210;2022-09-09T22:53:35;5.05;;;1.10;;
74867;SDS011;63419;42.262;12.210;2022-09-09T22:56:05;6.47;;;1.05;;
74867;SDS011;63419;42.262;12.210;2022-09-09T22:58:41;5.13;;;0.70;;
74867;SDS011;63419;42.262;12.210;2022-09-09T23:01:12;5.03;;;0.85;;
74867;SDS011;63419;42.262;12.210;2022-09-09T23:03:45;4.07;;;1.05;;
74867;SDS011;63419;42.262;12.210;2022-09-09T23:06:14;6.13;;;0.75;;
74867;SDS011;63419;42.262;12.210;2022-09-09T23:08:47;4.13;;;0.93;;
74867;SDS011;63419;42.262;12.210;2022-09-09T23:11:20;7.88;;;1.15;;
74867;SDS011;63419;42.262;12.210;2022-09-09T23:13:51;7.70;;;0.90;;
74867;SDS011;63419;42.262;12.210;2022-09-09T23:16:24;5.30;;;0.52;;
74867;SDS011;63419;42.262;12.210;2022-09-09T23:18:58;7.75;;;0.65;;
74867;SDS011;63419;42.262;12.210;2022-09-09T23:21:26;4.97;;;0.65;;
74867;SDS011;63419;42.262;12.210;2022-09-09T23:23:55;5.38;;;0.82;;
74867;SDS011;63419;42.262;12.210;2022-09-09T23:26:23;3.70;;;0.70;;
74867;SDS011;63419;42.262;12.210;2022-09-09T23:28:51;7.38;;;1.20;;
74867;SDS011;63419;42.262;12.210;2022-09-09T23:31:20;5.85;;;0.70;;
74867;SDS011;63419;42.262;12.210;2022-09-09T23:33:48;5.75;;;0.93;;
74867;SDS011;63419;42.262;12.210;2022-09-09T23:36:16;6.75;;;0.80;;
74867;SDS011;63419;42.262;12.210;2022-09-09T23:38:45;8.48;;;1.00;;
74867;SDS011;63419;42.262;12.210;2022-09-09T23:41:15;5.80;;;0.82;;
74867;SDS011;63419;42.262;12.210;2022-09-09T23:43:45;5.65;;;1.25;;
74867;SDS011;63419;42.262;12.210;2022-09-09T23:46:13;7.72;;;1.25;;
74867;SDS011;63419;42.262;12.210;2022-09-09T23:48:44;4.82;;;0.90;;
74867;SDS011;63419;42.262;12.210;2022-09-09T23:51:15;9.73;;;1.17;;
74867;SDS011;63419;42.262;12.210;2022-09-09T23:53:48;4.25;;;0.98;;
74867;SDS011;63419;42.262;12.210;2022-09-09T23:56:18;5.88;;;1.00;;
74867;SDS011;63419;42.262;12.210;2022-09-09T23:58:45;8.88;;;1.27;;
